Lorah, Iowa
Current Conditions -  °F | °C
As of 5:15 AM on Thursday 23 Oct 2014 (Local Time) from KAIO Reporting Station
Haze Haze  
Wind Chill: 57°   Ceiling: 600
Heat Index: 57°   Visibility: 4mi
Dew Point: 57°   Wind: 6mph
Humidity: 100%   Direction: 190°S
Pressure: 30.03"   Gusts: NA
Location:  41.4037°N, 95.0217°W
Report Text: KAIO 231015Z AUTO 19005KT 4SM BR OVC006 14/14 A3003 RMK AO2
Loading
Personal Weather Stations






























Interactive Weather Map
Tropical Storm Tracking
New forecast layout! Learn more

10-Day Weather Forecast

Advertisements
Track Severe Weather on mobile